createdAt,value
2022-09-26T00:01:26.120Z,8.72
2022-09-26T00:03:56.743Z,8.82
2022-09-26T00:06:25.027Z,8.77
2022-09-26T00:08:53.150Z,8.67
2022-09-26T00:11:23.939Z,8.75
2022-09-26T00:13:58.326Z,8.72
2022-09-26T00:16:26.598Z,8.67
2022-09-26T00:18:56.054Z,8.59
2022-09-26T00:21:24.810Z,8.48
2022-09-26T00:23:52.589Z,8.49
2022-09-26T00:26:22.154Z,8.45
2022-09-26T00:28:49.781Z,8.48
2022-09-26T00:31:20.871Z,8.45
2022-09-26T00:33:48.408Z,8.46
2022-09-26T00:36:16.635Z,8.30
2022-09-26T00:38:44.320Z,8.35
2022-09-26T00:41:12.721Z,8.29
2022-09-26T00:43:43.468Z,8.31
2022-09-26T00:46:32.480Z,8.28
2022-09-26T00:49:13.277Z,8.23
2022-09-26T00:51:46.487Z,8.09
2022-09-26T00:54:17.079Z,8.16
2022-09-26T00:56:49.040Z,8.11
2022-09-26T00:59:24.939Z,8.02
2022-09-26T01:01:55.379Z,8.03
2022-09-26T01:04:26.116Z,7.95
2022-09-26T01:06:54.404Z,7.97
2022-09-26T01:09:21.802Z,8.00
2022-09-26T01:11:49.189Z,8.00
2022-09-26T01:14:20.073Z,8.00
2022-09-26T01:16:51.446Z,7.89
2022-09-26T01:19:43.211Z,7.97
2022-09-26T01:22:48.153Z,7.91
2022-09-26T01:25:36.440Z,7.90
2022-09-26T01:28:15.529Z,7.93
2022-09-26T01:31:12.291Z,7.88
2022-09-26T01:33:55.704Z,7.77
2022-09-26T01:36:45.722Z,7.69
2022-09-26T01:39:44.509Z,7.58
2022-09-26T01:42:50.018Z,7.59
2022-09-26T01:45:26.996Z,7.48
2022-09-26T01:47:57.391Z,7.52
2022-09-26T01:50:38.933Z,7.45
2022-09-26T01:53:10.595Z,7.54
2022-09-26T01:55:51.590Z,7.45
2022-09-26T01:58:33.619Z,7.50
2022-09-26T02:01:05.333Z,7.50
2022-09-26T02:03:42.154Z,7.49
2022-09-26T02:06:14.621Z,7.45
2022-09-26T02:08:50.707Z,7.29
2022-09-26T02:11:19.671Z,7.35
2022-09-26T02:14:12.084Z,7.40
2022-09-26T02:16:44.786Z,7.28
2022-09-26T02:19:20.996Z,7.44
2022-09-26T02:21:49.222Z,7.37
2022-09-26T02:24:20.829Z,7.22
2022-09-26T02:26:48.056Z,7.29
2022-09-26T02:29:16.964Z,7.32
2022-09-26T02:32:03.236Z,7.29
2022-09-26T02:34:30.704Z,7.23
2022-09-26T02:37:00.078Z,7.25
2022-09-26T02:39:31.047Z,7.16
2022-09-26T02:42:25.017Z,7.11
2022-09-26T02:45:40.802Z,7.13
2022-09-26T02:48:13.388Z,7.14
2022-09-26T02:51:20.808Z,7.14
2022-09-26T02:54:04.031Z,7.05
2022-09-26T02:56:51.936Z,6.96
2022-09-26T02:59:24.067Z,6.99
2022-09-26T03:02:01.813Z,6.92
2022-09-26T03:04:46.589Z,6.97
2022-09-26T03:07:24.518Z,6.92
2022-09-26T03:09:53.464Z,6.90
2022-09-26T03:12:26.687Z,6.94
2022-09-26T03:14:58.572Z,6.93
2022-09-26T03:17:27.161Z,6.84
2022-09-26T03:20:00.018Z,6.77
2022-09-26T03:22:28.375Z,6.83
2022-09-26T03:24:59.708Z,6.80
2022-09-26T03:27:27.943Z,6.81
2022-09-26T03:29:56.172Z,6.72
2022-09-26T03:32:25.044Z,6.78
2022-09-26T03:34:52.222Z,6.81
2022-09-26T03:37:19.487Z,6.69
2022-09-26T03:39:46.739Z,6.79
2022-09-26T03:42:21.838Z,6.74
2022-09-26T03:44:49.727Z,6.73
2022-09-26T03:47:40.035Z,6.69
2022-09-26T03:50:07.679Z,6.69
2022-09-26T03:52:35.800Z,6.70
2022-09-26T03:55:04.355Z,6.60
2022-09-26T03:57:31.647Z,6.64
2022-09-26T04:00:11.611Z,6.54
2022-09-26T04:02:46.105Z,6.63
2022-09-26T04:05:26.179Z,6.66
2022-09-26T04:07:53.887Z,6.64
2022-09-26T04:10:21.031Z,6.58
2022-09-26T04:12:49.159Z,6.64
2022-09-26T04:15:16.678Z,6.53
2022-09-26T04:17:44.108Z,6.55
2022-09-26T04:20:11.543Z,6.57
2022-09-26T04:22:39.378Z,6.58
2022-09-26T04:25:07.146Z,6.46
2022-09-26T04:27:34.742Z,6.52
2022-09-26T04:30:01.924Z,6.52
2022-09-26T04:32:37.079Z,6.45
2022-09-26T04:35:35.845Z,6.45
2022-09-26T04:38:04.866Z,6.47
2022-09-26T04:40:34.119Z,6.51
2022-09-26T04:43:08.316Z,6.43
2022-09-26T04:45:36.182Z,6.45
2022-09-26T04:48:03.731Z,6.54
2022-09-26T04:50:49.683Z,6.85
2022-09-26T04:53:18.301Z,7.12
2022-09-26T04:56:07.363Z,7.08
2022-09-26T04:58:35.591Z,7.42
2022-09-26T05:01:05.736Z,7.46
2022-09-26T05:03:56.304Z,7.52
2022-09-26T05:06:24.376Z,7.52
2022-09-26T05:08:51.778Z,7.61
2022-09-26T05:11:25.255Z,7.48
2022-09-26T05:13:53.850Z,7.64
2022-09-26T05:16:22.942Z,7.66
2022-09-26T05:18:53.124Z,7.58
2022-09-26T05:21:20.762Z,7.63
2022-09-26T05:24:06.126Z,7.62
2022-09-26T05:26:43.136Z,7.65
2022-09-26T05:29:12.418Z,7.74
2022-09-26T05:31:46.802Z,7.82
2022-09-26T05:34:19.471Z,7.68
2022-09-26T05:36:49.048Z,7.45
2022-09-26T05:39:37.829Z,7.22
2022-09-26T05:42:09.062Z,7.20
2022-09-26T05:44:36.893Z,7.02
2022-09-26T05:47:04.538Z,6.97
2022-09-26T05:49:36.284Z,6.95
2022-09-26T05:52:04.288Z,7.01
2022-09-26T05:54:32.352Z,7.02
2022-09-26T05:57:02.437Z,6.92
2022-09-26T05:59:41.123Z,6.88
2022-09-26T06:02:26.562Z,6.99
2022-09-26T06:05:10.228Z,6.97
2022-09-26T06:07:37.594Z,6.83
2022-09-26T06:10:09.174Z,7.07
2022-09-26T06:13:02.566Z,7.15
2022-09-26T06:15:32.520Z,7.14
2022-09-26T06:18:05.420Z,7.19
2022-09-26T06:20:34.000Z,7.16
2022-09-26T06:23:01.964Z,7.09
2022-09-26T06:25:29.662Z,7.14
2022-09-26T06:28:00.646Z,7.21
2022-09-26T06:30:29.667Z,7.37
2022-09-26T06:33:04.152Z,7.41
2022-09-26T06:35:40.210Z,7.42
2022-09-26T06:38:17.305Z,7.52
2022-09-26T06:40:45.038Z,7.53
2022-09-26T06:43:12.249Z,7.62
2022-09-26T06:46:17.827Z,7.72
2022-09-26T06:48:50.986Z,7.76
2022-09-26T06:51:28.214Z,7.84
2022-09-26T06:53:55.434Z,7.86
2022-09-26T06:56:26.720Z,7.83
2022-09-26T06:58:53.912Z,7.99
2022-09-26T07:01:28.980Z,8.00
2022-09-26T07:04:16.013Z,8.17
2022-09-26T07:06:46.382Z,8.28
2022-09-26T07:09:13.796Z,8.17
2022-09-26T07:12:17.177Z,8.49
2022-09-26T07:14:44.564Z,8.55
2022-09-26T07:17:21.542Z,8.66
2022-09-26T07:20:17.567Z,8.76
2022-09-26T07:23:17.193Z,8.86
2022-09-26T07:25:47.059Z,8.97
2022-09-26T07:28:15.089Z,8.98
2022-09-26T07:30:48.170Z,9.11
2022-09-26T07:33:24.388Z,9.42
2022-09-26T07:35:52.988Z,9.54
2022-09-26T07:38:22.006Z,9.66
2022-09-26T07:40:54.742Z,9.85
2022-09-26T07:43:35.669Z,9.98
2022-09-26T07:46:28.863Z,10.20
2022-09-26T07:49:15.447Z,10.40
2022-09-26T07:52:05.743Z,10.59
2022-09-26T07:55:05.400Z,10.75
2022-09-26T07:57:50.334Z,11.08
2022-09-26T08:00:46.508Z,11.24
2022-09-26T08:03:44.820Z,11.37
2022-09-26T08:06:35.193Z,11.65
2022-09-26T08:09:02.701Z,11.70
2022-09-26T08:11:48.353Z,12.01
2022-09-26T08:14:36.279Z,12.12
2022-09-26T08:17:17.510Z,12.21
2022-09-26T08:19:44.781Z,12.34
2022-09-26T08:22:12.614Z,12.36
2022-09-26T08:24:39.774Z,12.58
2022-09-26T08:27:19.137Z,12.68
2022-09-26T08:29:48.697Z,12.82
2022-09-26T08:32:17.625Z,12.99
2022-09-26T08:34:44.988Z,13.08
2022-09-26T08:37:35.456Z,13.16
2022-09-26T08:40:28.508Z,13.34
2022-09-26T08:43:37.301Z,13.47
2022-09-26T08:47:01.920Z,13.67
2022-09-26T08:50:08.285Z,13.79
2022-09-26T08:52:42.033Z,13.93
2022-09-26T08:55:24.192Z,14.05
2022-09-26T08:57:54.437Z,14.37
2022-09-26T09:00:25.021Z,14.46
2022-09-26T09:03:06.992Z,14.71
2022-09-26T09:05:39.425Z,14.79
2022-09-26T09:08:14.607Z,15.21
2022-09-26T09:11:15.515Z,15.37
2022-09-26T09:14:14.364Z,15.69
2022-09-26T09:17:53.459Z,16.00
2022-09-26T09:20:58.387Z,15.96
2022-09-26T09:23:54.004Z,16.08
2022-09-26T09:30:15.903Z,16.61
2022-09-26T09:33:03.277Z,16.71
2022-09-26T09:36:00.814Z,16.75
2022-09-26T09:38:40.333Z,16.82
2022-09-26T09:41:35.414Z,16.95
2022-09-26T09:44:36.936Z,17.03
2022-09-26T09:47:14.628Z,17.09
2022-09-26T09:49:43.535Z,17.21
2022-09-26T09:52:20.294Z,17.25
2022-09-26T09:55:03.161Z,17.24
2022-09-26T09:57:55.195Z,17.33
2022-09-26T10:00:24.760Z,17.54
2022-09-26T10:03:13.119Z,17.42
2022-09-26T10:05:53.899Z,17.60
2022-09-26T10:08:35.714Z,17.79
2022-09-26T10:11:24.425Z,17.89
2022-09-26T10:14:06.343Z,17.87
2022-09-26T10:17:10.526Z,17.94
2022-09-26T10:19:48.606Z,17.99
2022-09-26T10:22:26.424Z,18.15
2022-09-26T10:25:02.802Z,18.21
2022-09-26T10:27:46.939Z,18.24
2022-09-26T10:30:18.970Z,18.24
2022-09-26T10:32:55.499Z,18.27
2022-09-26T10:35:47.706Z,18.48
2022-09-26T10:38:25.005Z,18.63
2022-09-26T10:41:26.265Z,18.70
2022-09-26T10:43:57.818Z,18.86
2022-09-26T10:46:51.571Z,18.85
2022-09-26T10:50:07.813Z,18.97
2022-09-26T10:53:11.899Z,18.97
2022-09-26T10:55:49.629Z,19.15
2022-09-26T10:58:24.274Z,19.20
2022-09-26T11:00:55.283Z,19.28
2022-09-26T11:03:38.229Z,19.32
2022-09-26T11:06:29.605Z,19.17
2022-09-26T11:09:20.928Z,19.21
2022-09-26T11:12:25.507Z,19.24
2022-09-26T11:15:00.492Z,19.16
2022-09-26T11:17:43.565Z,19.30
2022-09-26T11:20:15.826Z,19.26
2022-09-26T11:23:07.985Z,19.36
2022-09-26T11:25:57.778Z,19.25
2022-09-26T11:28:34.550Z,19.22
2022-09-26T11:31:41.196Z,19.36
2022-09-26T11:34:36.786Z,19.15
2022-09-26T11:37:36.752Z,19.29
2022-09-26T11:40:31.220Z,19.47
2022-09-26T11:43:51.641Z,19.55
2022-09-26T11:47:01.939Z,19.65
2022-09-26T11:49:50.271Z,19.81
2022-09-26T11:52:49.706Z,19.80
2022-09-26T11:55:50.886Z,19.90
2022-09-26T11:58:40.340Z,19.96
2022-09-26T12:01:31.116Z,20.00
2022-09-26T12:04:17.065Z,20.02
2022-09-26T12:06:56.734Z,19.98
2022-09-26T12:09:37.720Z,19.97
2022-09-26T12:12:10.826Z,19.96
2022-09-26T12:14:44.273Z,20.04
2022-09-26T12:17:20.401Z,20.08
2022-09-26T12:20:14.273Z,20.00
2022-09-26T12:23:14.538Z,20.05
2022-09-26T12:26:09.195Z,20.11
2022-09-26T12:28:45.342Z,20.23
2022-09-26T12:31:26.234Z,20.19
2022-09-26T12:34:18.000Z,20.12
2022-09-26T12:37:04.178Z,20.16
2022-09-26T12:39:46.681Z,20.14
2022-09-26T12:42:37.245Z,20.19
2022-09-26T12:45:24.139Z,20.21
2022-09-26T12:48:19.510Z,20.04
2022-09-26T12:51:08.378Z,19.98
2022-09-26T12:54:15.555Z,20.04
2022-09-26T12:56:55.909Z,20.20
2022-09-26T12:59:38.397Z,20.42
2022-09-26T13:02:08.912Z,20.52
2022-09-26T13:04:57.780Z,20.76
2022-09-26T13:07:53.790Z,20.83
2022-09-26T13:10:38.330Z,20.64
2022-09-26T13:13:57.667Z,20.54
2022-09-26T13:16:37.035Z,20.62
2022-09-26T13:19:24.621Z,20.67
2022-09-26T13:22:27.904Z,20.86
2022-09-26T13:25:20.210Z,20.80
2022-09-26T13:27:58.254Z,20.77
2022-09-26T13:30:35.394Z,20.77
2022-09-26T13:33:21.819Z,20.77
2022-09-26T13:35:52.024Z,20.55
2022-09-26T13:38:32.632Z,20.35
2022-09-26T13:41:19.005Z,20.09
2022-09-26T13:44:03.832Z,19.96
2022-09-26T13:47:01.570Z,19.94
2022-09-26T13:49:31.340Z,19.66
2022-09-26T13:52:11.838Z,19.45
2022-09-26T13:55:14.722Z,19.46
2022-09-26T13:58:03.356Z,19.61
2022-09-26T14:00:30.685Z,19.61
2022-09-26T14:03:19.531Z,19.59
2022-09-26T14:05:52.622Z,19.52
2022-09-26T14:08:44.653Z,19.53
2022-09-26T14:11:32.800Z,19.38
2022-09-26T14:14:21.755Z,19.36
2022-09-26T14:16:49.744Z,19.30
2022-09-26T14:19:36.468Z,19.27
2022-09-26T14:22:05.595Z,19.28
2022-09-26T14:24:38.699Z,19.25
2022-09-26T14:27:24.351Z,19.32
2022-09-26T14:29:58.729Z,19.22
2022-09-26T14:32:40.682Z,19.47
2022-09-26T14:35:21.107Z,19.49
2022-09-26T14:37:51.053Z,19.37
2022-09-26T14:40:39.877Z,19.58
2022-09-26T14:43:18.715Z,19.62
2022-09-26T14:46:15.232Z,19.73
2022-09-26T14:48:43.642Z,19.72
2022-09-26T14:51:19.840Z,19.91
2022-09-26T14:54:19.680Z,19.99
2022-09-26T14:56:49.796Z,19.89
2022-09-26T14:59:16.889Z,19.85
2022-09-26T15:01:45.400Z,19.89
2022-09-26T15:04:20.312Z,19.92
2022-09-26T15:06:57.077Z,19.87
2022-09-26T15:09:49.961Z,19.93
2022-09-26T15:12:28.817Z,19.81
2022-09-26T15:15:26.909Z,19.73
2022-09-26T15:18:02.359Z,19.56
2022-09-26T15:20:32.714Z,19.47
2022-09-26T15:23:01.421Z,19.34
2022-09-26T15:25:33.508Z,19.29
2022-09-26T15:28:05.536Z,19.17
2022-09-26T15:30:37.599Z,19.13
2022-09-26T15:33:06.193Z,19.06
2022-09-26T15:35:34.234Z,18.92
2022-09-26T15:38:12.126Z,18.73
2022-09-26T15:40:39.340Z,18.74
2022-09-26T15:43:20.744Z,18.64
2022-09-26T15:45:48.164Z,18.67
2022-09-26T15:48:22.150Z,18.69
2022-09-26T15:51:00.181Z,18.72
2022-09-26T15:53:36.727Z,18.68
2022-09-26T15:56:17.589Z,18.59
2022-09-26T15:59:22.456Z,18.60
2022-09-26T16:01:50.099Z,18.51
2022-09-26T16:04:20.972Z,18.41
2022-09-26T16:07:19.387Z,18.35
2022-09-26T16:09:48.753Z,18.09
2022-09-26T16:12:16.461Z,18.02
2022-09-26T16:14:51.024Z,17.85
2022-09-26T16:17:36.920Z,17.67
2022-09-26T16:20:10.217Z,17.60
2022-09-26T16:22:37.560Z,17.49
2022-09-26T16:25:40.013Z,17.40
2022-09-26T16:28:09.365Z,17.36
2022-09-26T16:30:46.264Z,17.35
2022-09-26T16:33:16.455Z,17.28
2022-09-26T16:35:46.802Z,17.30
2022-09-26T16:38:31.448Z,17.34
2022-09-26T16:41:42.018Z,17.39
2022-09-26T16:44:29.022Z,17.35
2022-09-26T16:47:03.383Z,17.36
2022-09-26T16:49:46.327Z,17.35
2022-09-26T16:52:28.573Z,17.23
2022-09-26T16:54:58.385Z,17.29
2022-09-26T16:57:35.469Z,17.22
2022-09-26T17:00:36.272Z,17.18
2022-09-26T17:03:17.368Z,17.17
2022-09-26T17:05:44.807Z,17.15
2022-09-26T17:08:12.294Z,17.15
2022-09-26T17:10:44.441Z,17.18
2022-09-26T17:13:22.179Z,17.11
2022-09-26T17:15:55.380Z,17.10
2022-09-26T17:18:34.881Z,17.04
2022-09-26T17:21:03.301Z,17.02
2022-09-26T17:23:42.235Z,17.08
2022-09-26T17:26:22.113Z,17.04
2022-09-26T17:28:54.087Z,17.04
2022-09-26T17:31:22.689Z,16.98
2022-09-26T17:33:53.807Z,16.95
2022-09-26T17:36:43.697Z,16.92
2022-09-26T17:39:14.745Z,16.89
2022-09-26T17:41:42.463Z,16.85
2022-09-26T17:44:10.775Z,16.84
2022-09-26T17:46:49.878Z,16.75
2022-09-26T17:49:30.911Z,16.76
2022-09-26T17:52:01.384Z,16.68
2022-09-26T17:54:31.697Z,16.72
2022-09-26T17:56:59.508Z,16.34
2022-09-26T17:59:29.005Z,16.22
2022-09-26T18:02:04.577Z,16.27
2022-09-26T18:04:33.280Z,16.28
2022-09-26T18:07:04.883Z,16.29
2022-09-26T18:09:35.592Z,16.25
2022-09-26T18:12:04.365Z,16.19
2022-09-26T18:14:33.971Z,16.18
2022-09-26T18:17:01.841Z,16.28
2022-09-26T18:19:31.033Z,16.12
2022-09-26T18:21:59.584Z,16.00
2022-09-26T18:24:30.169Z,16.22
2022-09-26T18:27:04.584Z,16.22
2022-09-26T18:29:39.097Z,16.25
2022-09-26T18:32:14.820Z,16.27
2022-09-26T18:34:43.802Z,16.22
2022-09-26T18:37:11.688Z,16.11
2022-09-26T18:39:39.667Z,15.99
2022-09-26T18:42:11.409Z,16.04
2022-09-26T18:44:38.725Z,16.07
2022-09-26T18:47:14.484Z,15.97
2022-09-26T18:49:42.157Z,16.00
2022-09-26T18:52:15.936Z,15.82
2022-09-26T18:54:45.321Z,15.81
2022-09-26T18:57:31.500Z,15.81
2022-09-26T19:00:00.420Z,15.81
2022-09-26T19:02:33.718Z,15.74
2022-09-26T19:05:03.412Z,15.60
2022-09-26T19:07:33.700Z,15.68
2022-09-26T19:10:00.948Z,15.69
2022-09-26T19:12:28.303Z,15.67
2022-09-26T19:14:56.088Z,15.64
2022-09-26T19:17:23.618Z,15.53
2022-09-26T19:19:51.302Z,15.69
2022-09-26T19:22:19.277Z,15.64
2022-09-26T19:24:56.063Z,15.62
2022-09-26T19:27:38.390Z,15.69
2022-09-26T19:30:08.677Z,15.56
2022-09-26T19:32:47.347Z,15.71
2022-09-26T19:35:27.306Z,15.69
2022-09-26T19:37:56.836Z,15.68
2022-09-26T19:40:25.928Z,15.60
2022-09-26T19:42:54.396Z,15.58
2022-09-26T19:45:22.595Z,15.56
2022-09-26T19:47:52.900Z,15.49
2022-09-26T19:50:26.618Z,15.33
2022-09-26T19:52:59.572Z,15.25
2022-09-26T19:55:31.736Z,15.26
2022-09-26T19:58:20.296Z,15.20
2022-09-26T20:00:59.372Z,15.15
2022-09-26T20:03:32.465Z,15.12
2022-09-26T20:06:01.254Z,15.08
2022-09-26T20:08:28.970Z,15.10
2022-09-26T20:10:57.062Z,15.07
2022-09-26T20:13:24.573Z,15.01
2022-09-26T20:15:52.994Z,15.07
2022-09-26T20:18:24.393Z,15.08
2022-09-26T20:20:55.997Z,15.09
2022-09-26T20:23:26.758Z,15.08
2022-09-26T20:25:56.901Z,15.14
2022-09-26T20:28:25.841Z,15.12
2022-09-26T20:30:55.012Z,15.15
2022-09-26T20:33:26.690Z,15.15
2022-09-26T20:36:02.824Z,15.08
2022-09-26T20:38:37.529Z,15.14
2022-09-26T20:41:15.542Z,15.17
2022-09-26T20:43:48.753Z,15.13
2022-09-26T20:46:16.470Z,15.16
2022-09-26T20:48:48.138Z,15.14
2022-09-26T20:51:20.771Z,15.16
2022-09-26T20:53:48.364Z,15.14
2022-09-26T20:56:21.506Z,14.99
2022-09-26T20:58:49.156Z,15.12
2022-09-26T21:01:18.703Z,15.05
2022-09-26T21:03:53.140Z,15.06
2022-09-26T21:06:23.844Z,15.06
2022-09-26T21:08:51.473Z,15.04
2022-09-26T21:11:22.759Z,15.07
2022-09-26T21:13:50.593Z,15.03
2022-09-26T21:16:20.299Z,14.92
2022-09-26T21:18:51.781Z,15.05
2022-09-26T21:21:26.937Z,14.97
2022-09-26T21:24:24.829Z,14.95
2022-09-26T21:26:52.483Z,14.90
2022-09-26T21:29:21.166Z,14.84
2022-09-26T21:31:51.860Z,14.78
2022-09-26T21:34:28.057Z,14.84
2022-09-26T21:37:01.934Z,14.75
2022-09-26T21:39:29.376Z,14.78
2022-09-26T21:41:59.086Z,14.70
2022-09-26T21:44:59.724Z,14.70
2022-09-26T21:47:28.265Z,14.76
2022-09-26T21:49:55.615Z,14.67
2022-09-26T21:52:34.300Z,14.74
2022-09-26T21:55:02.730Z,14.72
2022-09-26T21:57:34.118Z,14.55
2022-09-26T22:00:04.352Z,14.71
2022-09-26T22:02:41.962Z,14.70
2022-09-26T22:05:11.929Z,14.66
2022-09-26T22:07:39.525Z,14.61
2022-09-26T22:10:07.887Z,14.58
2022-09-26T22:12:38.128Z,14.51
2022-09-26T22:15:07.725Z,14.51
2022-09-26T22:17:35.028Z,14.39
2022-09-26T22:20:02.864Z,14.39
2022-09-26T22:22:30.321Z,14.38
2022-09-26T22:25:02.800Z,14.27
2022-09-26T22:27:31.237Z,14.29
2022-09-26T22:29:58.396Z,14.26
2022-09-26T22:32:25.993Z,14.23
2022-09-26T22:34:53.606Z,14.11
2022-09-26T22:37:20.958Z,14.06
2022-09-26T22:39:48.239Z,13.98
2022-09-26T22:42:15.519Z,13.94
2022-09-26T22:44:43.024Z,13.82
2022-09-26T22:47:10.352Z,13.82
2022-09-26T22:49:37.639Z,13.78
2022-09-26T22:52:04.889Z,13.67
2022-09-26T22:54:32.100Z,13.70
2022-09-26T22:56:59.300Z,13.63
2022-09-26T22:59:26.571Z,13.57
2022-09-26T23:01:57.084Z,13.49
2022-09-26T23:04:24.332Z,13.55
2022-09-26T23:06:52.172Z,13.52
2022-09-26T23:09:19.421Z,13.44
2022-09-26T23:11:47.327Z,13.39
2022-09-26T23:14:14.434Z,13.30
2022-09-26T23:16:41.646Z,13.39
2022-09-26T23:19:09.025Z,13.35
2022-09-26T23:21:36.216Z,13.26
2022-09-26T23:24:04.435Z,13.19
2022-09-26T23:26:32.723Z,13.17
2022-09-26T23:29:00.388Z,13.18
2022-09-26T23:31:28.519Z,13.19
2022-09-26T23:33:56.036Z,13.17
2022-09-26T23:36:24.033Z,13.17
2022-09-26T23:38:51.763Z,13.20
2022-09-26T23:41:18.992Z,13.21
2022-09-26T23:43:49.148Z,13.21
2022-09-26T23:46:17.083Z,13.25
2022-09-26T23:48:44.482Z,13.26
2022-09-26T23:51:11.657Z,13.24
2022-09-26T23:53:38.978Z,13.25
2022-09-26T23:56:09.106Z,13.25
2022-09-26T23:58:37.420Z,13.29
